首页
METAR-TAF:

METAR-TAF

机场 :

Santa Fe Municipal Airport

圣菲, 新墨西哥州, 美国

纬度: 35-36-38N, 经度: 106-05-42W, 海拔: 1934米

当前天气观测

该预报发布于1小时和5分钟前的20:53 UTC
风速20节,风向西转西南,有时为36节阵风
温度 24°C
湿度 12%
气压 1017 hPa
能見度: 16.1公里
天空无云

METAR: KSAF 172053Z 25020G36KT 10SM CLR 24/M07 A3002 RMK AO2 PK WND 24036/2046 SLP088 T02391072 58023

时间: 15:58 (21:58 UTC)

预报

该预报发布于4小时和24分钟前的17:34 UTC
预报有效从17日的 18点(UTC)到 18日的 18点(UTC)
风速8节,风向西南
能見度: 10公里
天空无云
从 17日的 2000点(UTC)
风速15节,风向西转西南,有时为25节阵风
能見度: 10公里
天空无云
从 18日的 0200点(UTC)
风速7节,风向西北
能見度: 10公里
天空无云
从 18日的 0500点(UTC)
风速6节,风向
能見度: 10公里
少量云层高于25000英尺

TAF: KSAF 171734Z 1718/1818 22008KT P6SM SKC FM172000 25015G25KT P6SM SKC FM180200 31007KT P6SM SKC FM180500 36006KT P6SM FEW250

超过4000个机场的气象观测和天气预报(METAR&TAF报告)。

可查询的气象台以黄色和红色小点在地图上表示。

将鼠标移到小点上方,可查看气象台名称。

然后点击查看天气观测和预报。

如需切换地图:点击带黑十字的绿色按钮放大地图;点击带横线的绿色按钮缩小地图;或者点击绿色箭头查看邻近地区的地图。


METAR-TAF: